createdAt,value
2023-02-03T00:01:54.996Z,11.33
2023-02-03T00:04:26.345Z,13.37
2023-02-03T00:06:58.271Z,14.87
2023-02-03T00:09:28.937Z,12.50
2023-02-03T00:12:00.565Z,8.73
2023-02-03T00:14:33.768Z,9.50
2023-02-03T00:17:04.936Z,7.53
2023-02-03T00:19:37.250Z,9.47
2023-02-03T00:22:09.382Z,7.07
2023-02-03T00:24:39.986Z,6.20
2023-02-03T00:27:10.455Z,10.57
2023-02-03T00:29:42.291Z,10.57
2023-02-03T00:32:12.976Z,9.43
2023-02-03T00:34:45.339Z,11.67
2023-02-03T00:37:16.023Z,8.17
2023-02-03T00:39:51.685Z,9.73
2023-02-03T00:42:19.979Z,10.27
2023-02-03T00:44:50.576Z,7.27
2023-02-03T00:47:24.305Z,9.37
2023-02-03T00:49:57.582Z,10.63
2023-02-03T00:52:30.275Z,10.03
2023-02-03T00:55:03.915Z,9.80
2023-02-03T00:57:34.652Z,10.50
2023-02-03T01:00:06.344Z,9.10
2023-02-03T01:02:37.992Z,11.80
2023-02-03T01:05:10.853Z,5.90
2023-02-03T01:07:41.723Z,9.40
2023-02-03T01:10:14.427Z,11.93
2023-02-03T01:12:46.635Z,8.83
2023-02-03T01:15:17.326Z,7.10
2023-02-03T01:17:48.249Z,11.13
2023-02-03T01:20:21.719Z,9.67
2023-02-03T01:22:52.464Z,8.63
2023-02-03T01:25:27.116Z,11.70
2023-02-03T01:27:58.638Z,10.90
2023-02-03T01:30:32.938Z,6.90
2023-02-03T01:33:05.382Z,11.43
2023-02-03T01:35:39.470Z,6.80
2023-02-03T01:38:10.433Z,7.87
2023-02-03T01:40:48.822Z,8.30
2023-02-03T01:43:43.181Z,10.27
2023-02-03T01:46:41.906Z,7.63
2023-02-03T01:49:27.752Z,8.07
2023-02-03T01:52:00.983Z,5.67
2023-02-03T01:54:37.707Z,6.93
2023-02-03T01:57:15.562Z,7.23
2023-02-03T01:59:46.973Z,12.10
2023-02-03T02:02:21.073Z,10.25
2023-02-03T02:04:56.358Z,11.63
2023-02-03T02:07:27.069Z,8.23
2023-02-03T02:10:00.859Z,7.83
2023-02-03T02:12:32.210Z,6.47
2023-02-03T02:15:03.563Z,6.77
2023-02-03T02:17:55.079Z,8.30
2023-02-03T02:21:02.931Z,8.23
2023-02-03T02:23:46.594Z,10.67
2023-02-03T02:26:39.491Z,7.00
2023-02-03T02:29:17.157Z,9.20
2023-02-03T02:31:56.725Z,7.53
2023-02-03T02:34:47.501Z,7.93
2023-02-03T02:37:23.266Z,6.20
2023-02-03T02:40:02.722Z,7.77
2023-02-03T02:43:07.860Z,6.00
2023-02-03T02:45:44.359Z,7.63
2023-02-03T02:48:29.752Z,5.63
2023-02-03T02:51:04.802Z,6.03
2023-02-03T02:53:41.416Z,5.43
2023-02-03T02:56:15.669Z,6.60
2023-02-03T02:58:51.550Z,6.97
2023-02-03T03:01:23.354Z,5.63
2023-02-03T03:03:55.914Z,4.37
2023-02-03T03:06:32.222Z,6.20
2023-02-03T03:09:13.657Z,6.30
2023-02-03T03:11:50.619Z,6.27
2023-02-03T03:14:26.007Z,5.70
2023-02-03T03:16:59.547Z,5.40
2023-02-03T03:19:33.127Z,6.90
2023-02-03T03:22:10.451Z,5.17
2023-02-03T03:24:52.351Z,5.57
2023-02-03T03:27:27.574Z,4.87
2023-02-03T03:30:04.654Z,4.80
2023-02-03T03:32:42.922Z,4.67
2023-02-03T03:35:13.203Z,4.27
2023-02-03T03:38:05.200Z,4.87
2023-02-03T03:40:42.415Z,4.27
2023-02-03T03:43:17.230Z,4.27
2023-02-03T03:46:04.041Z,3.70
2023-02-03T03:49:01.614Z,4.67
2023-02-03T03:51:48.118Z,3.97
2023-02-03T03:54:21.565Z,4.17
2023-02-03T03:57:03.873Z,3.80
2023-02-03T03:59:37.362Z,3.20
2023-02-03T04:02:08.896Z,3.60
2023-02-03T04:04:41.945Z,3.10
2023-02-03T04:07:16.273Z,3.80
2023-02-03T04:09:46.843Z,3.80
2023-02-03T04:12:25.887Z,4.90
2023-02-03T04:14:56.418Z,4.10
2023-02-03T04:17:29.606Z,4.27
2023-02-03T04:20:03.038Z,4.83
2023-02-03T04:22:35.658Z,4.73
2023-02-03T04:25:09.535Z,5.03
2023-02-03T04:27:42.460Z,4.65
2023-02-03T04:30:15.305Z,5.43
2023-02-03T04:32:47.889Z,5.90
2023-02-03T04:35:19.456Z,6.50
2023-02-03T04:37:50.017Z,6.83
2023-02-03T04:40:22.362Z,6.50
2023-02-03T04:42:53.060Z,8.00
2023-02-03T04:45:25.276Z,9.00
2023-02-03T04:47:58.073Z,9.37
2023-02-03T04:50:28.141Z,9.23
2023-02-03T04:53:00.376Z,8.60
2023-02-03T04:55:31.069Z,11.43
2023-02-03T04:58:03.720Z,9.77
2023-02-03T05:00:35.772Z,12.60
2023-02-03T05:03:06.164Z,13.07
2023-02-03T05:05:41.718Z,15.73
2023-02-03T05:08:12.420Z,14.90
2023-02-03T05:10:43.680Z,17.20
2023-02-03T05:13:14.108Z,19.40
2023-02-03T05:15:44.746Z,21.50
2023-02-03T05:18:15.165Z,17.13
2023-02-03T05:20:45.601Z,21.97
2023-02-03T05:23:16.851Z,21.80
2023-02-03T05:25:48.010Z,22.33
2023-02-03T05:28:18.647Z,23.37
2023-02-03T05:30:49.584Z,22.90
2023-02-03T05:33:21.484Z,26.93
2023-02-03T05:35:52.158Z,24.27
2023-02-03T05:38:25.503Z,25.40
2023-02-03T05:41:13.698Z,26.42
2023-02-03T05:43:44.269Z,29.70
2023-02-03T05:46:14.867Z,27.83
2023-02-03T05:48:47.023Z,29.63
2023-02-03T05:51:18.746Z,29.02
2023-02-03T05:53:49.351Z,25.88
2023-02-03T05:56:21.501Z,31.17
2023-02-03T05:58:53.439Z,28.40
2023-02-03T06:01:24.527Z,31.17
2023-02-03T06:03:55.214Z,28.35
2023-02-03T06:06:29.341Z,27.13
2023-02-03T06:09:01.258Z,28.30
2023-02-03T06:11:33.479Z,26.70
2023-02-03T06:14:05.546Z,27.30
2023-02-03T06:16:36.265Z,31.90
2023-02-03T06:19:06.704Z,27.77
2023-02-03T06:21:38.531Z,29.00
2023-02-03T06:24:09.011Z,26.50
2023-02-03T06:26:41.569Z,27.83
2023-02-03T06:29:12.224Z,30.13
2023-02-03T06:31:42.935Z,25.68
2023-02-03T06:34:14.169Z,28.83
2023-02-03T06:36:44.705Z,28.95
2023-02-03T06:39:17.052Z,24.12
2023-02-03T06:41:49.583Z,27.37
2023-02-03T06:44:22.528Z,27.52
2023-02-03T06:46:53.611Z,24.20
2023-02-03T06:49:24.281Z,25.70
2023-02-03T06:51:54.868Z,27.55
2023-02-03T06:54:25.508Z,25.40
2023-02-03T06:56:56.184Z,25.97
2023-02-03T06:59:27.907Z,25.93
2023-02-03T07:01:59.729Z,27.60
2023-02-03T07:04:31.999Z,22.67
2023-02-03T07:07:02.459Z,26.23
2023-02-03T07:09:33.093Z,24.37
2023-02-03T07:12:07.666Z,23.47
2023-02-03T07:14:39.544Z,24.83
2023-02-03T07:17:11.434Z,26.03
2023-02-03T07:19:44.530Z,23.35
2023-02-03T07:22:16.336Z,25.95
2023-02-03T07:24:47.898Z,25.70
2023-02-03T07:27:20.181Z,23.50
2023-02-03T07:29:50.744Z,22.35
2023-02-03T07:32:22.249Z,22.50
2023-02-03T07:34:53.084Z,21.33
2023-02-03T07:37:23.728Z,19.90
2023-02-03T07:39:54.698Z,20.95
2023-02-03T07:42:25.832Z,22.50
2023-02-03T07:44:56.494Z,20.27
2023-02-03T07:47:27.104Z,15.78
2023-02-03T07:50:00.916Z,20.15
2023-02-03T07:52:33.082Z,20.47
2023-02-03T07:55:08.241Z,16.90
2023-02-03T07:57:42.847Z,17.67
2023-02-03T08:00:17.365Z,18.92
2023-02-03T08:02:49.532Z,18.30
2023-02-03T08:05:21.123Z,16.93
2023-02-03T08:07:51.773Z,16.02
2023-02-03T08:10:22.813Z,14.38
2023-02-03T08:12:56.008Z,17.00
2023-02-03T08:15:33.298Z,13.48
2023-02-03T08:18:05.371Z,14.20
2023-02-03T08:20:38.101Z,13.83
2023-02-03T08:23:11.402Z,13.63
2023-02-03T08:25:42.954Z,14.05
2023-02-03T08:28:13.830Z,12.15
2023-02-03T08:30:44.352Z,13.68
2023-02-03T08:33:16.681Z,12.20
2023-02-03T08:35:49.936Z,11.33
2023-02-03T08:38:22.980Z,12.80
2023-02-03T08:40:54.412Z,13.38
2023-02-03T08:43:27.855Z,13.77
2023-02-03T08:46:03.291Z,11.08
2023-02-03T08:48:38.795Z,13.48
2023-02-03T08:51:16.998Z,11.00
2023-02-03T08:53:50.350Z,11.93
2023-02-03T08:56:20.976Z,13.85
2023-02-03T08:58:55.736Z,11.93
2023-02-03T09:01:28.476Z,12.13
2023-02-03T09:04:05.639Z,11.08
2023-02-03T09:06:40.874Z,11.75
2023-02-03T09:09:16.433Z,10.60
2023-02-03T09:11:47.489Z,10.13
2023-02-03T09:14:20.858Z,8.93
2023-02-03T09:16:54.899Z,9.30
2023-02-03T09:19:30.532Z,9.78
2023-02-03T09:22:01.789Z,10.18
2023-02-03T09:24:35.688Z,8.10
2023-02-03T09:27:06.833Z,9.05
2023-02-03T09:29:39.218Z,7.50
2023-02-03T09:32:13.699Z,10.05
2023-02-03T09:34:45.661Z,6.92
2023-02-03T09:37:17.752Z,8.35
2023-02-03T09:39:50.049Z,9.33
2023-02-03T09:42:40.654Z,6.53
2023-02-03T09:45:20.186Z,9.50
2023-02-03T09:47:55.405Z,8.40
2023-02-03T09:50:29.702Z,7.47
2023-02-03T09:53:03.623Z,7.17
2023-02-03T09:55:48.047Z,7.25
2023-02-03T09:58:26.808Z,7.23
2023-02-03T10:01:02.130Z,6.17
2023-02-03T10:03:57.221Z,8.55
2023-02-03T10:06:43.830Z,8.28
2023-02-03T10:09:41.185Z,6.25
2023-02-03T10:12:18.188Z,8.28
2023-02-03T10:15:05.835Z,7.23
2023-02-03T10:17:54.322Z,8.05
2023-02-03T10:20:36.577Z,6.72
2023-02-03T10:23:12.305Z,6.10
2023-02-03T10:25:57.916Z,8.23
2023-02-03T10:28:36.030Z,5.90
2023-02-03T10:31:11.902Z,5.47
2023-02-03T10:33:43.271Z,6.33
2023-02-03T10:36:26.476Z,5.05
2023-02-03T10:39:02.819Z,5.28
2023-02-03T10:41:34.265Z,4.97
2023-02-03T10:44:09.068Z,3.77
2023-02-03T10:46:43.506Z,4.60
2023-02-03T10:49:16.628Z,3.27
2023-02-03T10:51:56.682Z,5.58
2023-02-03T10:54:38.193Z,3.72
2023-02-03T10:57:16.064Z,3.02
2023-02-03T10:59:51.415Z,2.35
2023-02-03T11:02:29.581Z,4.60
2023-02-03T11:05:19.736Z,4.97
2023-02-03T11:07:52.048Z,5.53
2023-02-03T11:10:40.864Z,5.22
2023-02-03T11:13:26.612Z,4.42
2023-02-03T11:16:04.542Z,5.37
2023-02-03T11:18:44.093Z,5.28
2023-02-03T11:21:18.924Z,8.63
2023-02-03T11:23:56.463Z,7.10
2023-02-03T11:26:31.886Z,6.97
2023-02-03T11:29:06.670Z,9.40
2023-02-03T11:31:38.855Z,8.30
2023-02-03T11:34:20.993Z,9.20
2023-02-03T11:36:53.231Z,12.18
2023-02-03T11:39:39.049Z,6.65
2023-02-03T11:42:24.352Z,10.72
2023-02-03T11:44:58.343Z,11.70
2023-02-03T11:47:30.329Z,9.48
2023-02-03T11:50:16.770Z,10.05
2023-02-03T11:52:50.403Z,12.13
2023-02-03T11:56:01.091Z,12.63
2023-02-03T11:58:59.563Z,12.63
2023-02-03T12:01:59.789Z,10.15
2023-02-03T12:04:40.328Z,9.38
2023-02-03T12:07:32.579Z,12.78
2023-02-03T12:10:19.340Z,15.05
2023-02-03T12:12:55.522Z,15.05
2023-02-03T12:15:38.589Z,12.70
2023-02-03T12:18:18.428Z,9.80
2023-02-03T12:20:59.455Z,12.33
2023-02-03T12:23:41.110Z,11.68
2023-02-03T12:26:18.809Z,14.87
2023-02-03T12:29:05.537Z,17.70
2023-02-03T12:31:59.985Z,21.37
2023-02-03T12:34:34.886Z,17.92
2023-02-03T12:37:22.115Z,18.27
2023-02-03T12:40:06.030Z,14.53
2023-02-03T12:42:39.816Z,17.48
2023-02-03T12:45:19.797Z,10.28
2023-02-03T12:48:00.241Z,17.15
2023-02-03T12:50:53.911Z,15.28
2023-02-03T12:53:34.979Z,13.72
2023-02-03T12:56:15.865Z,14.10
2023-02-03T12:58:56.710Z,18.50
2023-02-03T13:01:36.446Z,10.00
2023-02-03T13:04:37.711Z,9.48
2023-02-03T13:07:27.674Z,4.47
2023-02-03T13:10:08.083Z,9.35
2023-02-03T13:12:50.625Z,6.15
2023-02-03T13:15:29.935Z,6.77
2023-02-03T13:18:26.032Z,12.50
2023-02-03T13:20:58.369Z,8.88
2023-02-03T13:23:29.455Z,15.75
2023-02-03T13:26:22.151Z,6.43
2023-02-03T13:28:58.237Z,6.57
2023-02-03T13:32:03.499Z,7.73
2023-02-03T13:34:50.006Z,10.93
2023-02-03T13:37:42.240Z,14.40
2023-02-03T13:40:40.656Z,9.07
2023-02-03T13:43:28.381Z,13.00
2023-02-03T13:45:51.948Z,10.87
2023-02-03T13:48:28.499Z,9.40
2023-02-03T13:51:12.649Z,10.33
2023-02-03T13:53:48.296Z,12.28
2023-02-03T13:56:25.032Z,15.38
2023-02-03T13:59:04.983Z,14.07
2023-02-03T14:01:42.718Z,16.77
2023-02-03T14:04:28.714Z,9.90
2023-02-03T14:07:02.314Z,13.65
2023-02-03T14:09:38.361Z,19.57
2023-02-03T14:12:20.904Z,17.23
2023-02-03T14:14:59.381Z,15.37
2023-02-03T14:17:42.892Z,17.17
2023-02-03T14:20:31.718Z,19.92
2023-02-03T14:23:08.344Z,18.50
2023-02-03T14:25:50.936Z,12.05
2023-02-03T14:28:30.468Z,14.60
2023-02-03T14:31:14.977Z,22.82
2023-02-03T14:34:05.845Z,19.48
2023-02-03T14:36:40.473Z,14.50
2023-02-03T14:39:22.920Z,14.38
2023-02-03T14:42:26.822Z,18.75
2023-02-03T14:45:17.547Z,19.07
2023-02-03T14:48:03.073Z,16.65
2023-02-03T14:50:45.883Z,20.35
2023-02-03T14:53:28.375Z,19.07
2023-02-03T14:56:04.676Z,19.52
2023-02-03T14:58:43.987Z,22.25
2023-02-03T15:01:29.712Z,15.32
2023-02-03T15:04:25.392Z,21.30
2023-02-03T15:06:57.727Z,20.45
2023-02-03T15:09:31.226Z,17.35
2023-02-03T15:12:02.218Z,20.72
2023-02-03T15:14:34.386Z,18.35
2023-02-03T15:17:07.884Z,14.43
2023-02-03T15:19:41.123Z,18.87
2023-02-03T15:22:32.166Z,12.55
2023-02-03T15:25:07.369Z,15.23
2023-02-03T15:27:39.519Z,15.15
2023-02-03T15:30:26.077Z,18.95
2023-02-03T15:33:03.002Z,16.23
2023-02-03T15:35:38.954Z,19.67
2023-02-03T15:38:25.527Z,9.05
2023-02-03T15:40:58.900Z,9.73
2023-02-03T15:43:43.967Z,11.88
2023-02-03T15:46:28.391Z,13.50
2023-02-03T15:49:20.130Z,14.80
2023-02-03T15:51:57.072Z,10.68
2023-02-03T15:54:41.121Z,14.73
2023-02-03T15:57:20.560Z,18.32
2023-02-03T16:00:00.831Z,15.75
2023-02-03T16:02:34.378Z,15.65
2023-02-03T16:05:29.411Z,12.50
2023-02-03T16:08:20.976Z,17.55
2023-02-03T16:10:51.446Z,14.35
2023-02-03T16:13:28.030Z,17.75
2023-02-03T16:16:10.970Z,17.07
2023-02-03T16:18:43.921Z,14.43
2023-02-03T16:21:37.831Z,15.03
2023-02-03T16:24:09.859Z,18.37
2023-02-03T16:26:40.310Z,16.73
2023-02-03T16:29:31.960Z,17.02
2023-02-03T16:32:22.925Z,12.58
2023-02-03T16:35:13.626Z,18.30
2023-02-03T16:38:05.837Z,18.80
2023-02-03T16:40:54.754Z,15.72
2023-02-03T16:43:58.180Z,22.90
2023-02-03T16:46:48.547Z,12.47
2023-02-03T16:49:36.965Z,16.80
2023-02-03T16:52:08.859Z,15.87
2023-02-03T16:54:40.344Z,15.70
2023-02-03T16:57:10.776Z,18.87
2023-02-03T16:59:41.261Z,19.73
2023-02-03T17:02:13.563Z,14.73
2023-02-03T17:04:44.060Z,17.48
2023-02-03T17:07:14.629Z,12.85
2023-02-03T17:09:47.319Z,11.93
2023-02-03T17:12:19.002Z,16.27
2023-02-03T17:14:49.456Z,19.87
2023-02-03T17:17:21.810Z,15.18
2023-02-03T17:19:52.765Z,17.50
2023-02-03T17:22:24.259Z,13.65
2023-02-03T17:24:56.753Z,18.70
2023-02-03T17:27:28.975Z,15.40
2023-02-03T17:30:02.663Z,15.80
2023-02-03T17:32:33.201Z,21.70
2023-02-03T17:35:03.969Z,17.47
2023-02-03T17:37:37.094Z,16.27
2023-02-03T17:54:18.153Z,17.40
2023-02-03T17:56:53.945Z,16.60
2023-02-03T17:59:26.915Z,21.70
2023-02-03T18:02:03.398Z,17.40
2023-02-03T18:04:36.953Z,18.63
2023-02-03T18:07:09.213Z,15.80
2023-02-03T18:09:40.014Z,16.13
2023-02-03T18:12:13.001Z,19.50
2023-02-03T18:14:45.149Z,15.15
2023-02-03T18:17:15.782Z,14.60
2023-02-03T18:19:55.685Z,14.55
2023-02-03T18:22:25.166Z,16.48
2023-02-03T18:24:57.649Z,17.52
2023-02-03T18:27:29.818Z,15.08
2023-02-03T18:30:00.332Z,18.70
2023-02-03T18:32:33.518Z,15.17
2023-02-03T18:35:06.280Z,17.17
2023-02-03T18:37:37.290Z,14.30
2023-02-03T18:40:08.786Z,16.52
2023-02-03T18:42:41.593Z,16.90
2023-02-03T18:45:12.928Z,18.00
2023-02-03T18:47:46.065Z,19.55
2023-02-03T18:50:15.909Z,14.43
2023-02-03T18:52:46.898Z,14.98
2023-02-03T18:55:23.055Z,11.30
2023-02-03T18:57:51.938Z,14.93
2023-02-03T19:00:22.813Z,11.30
2023-02-03T19:02:54.288Z,15.35
2023-02-03T19:05:25.077Z,18.42
2023-02-03T19:07:55.735Z,13.70
2023-02-03T19:10:28.281Z,14.30
2023-02-03T19:12:59.714Z,16.07
2023-02-03T19:15:31.028Z,18.70
2023-02-03T19:18:01.634Z,11.60
2023-02-03T19:20:33.741Z,16.12
2023-02-03T19:23:06.097Z,12.53
2023-02-03T19:25:39.865Z,12.85
2023-02-03T19:28:17.485Z,21.15
2023-02-03T19:30:42.578Z,7.50
2023-02-03T19:33:15.209Z,10.53
2023-02-03T19:35:48.517Z,16.03
2023-02-03T19:38:19.129Z,11.87
2023-02-03T19:40:50.808Z,10.67
2023-02-03T19:43:21.767Z,11.30
2023-02-03T19:45:53.732Z,9.90
2023-02-03T19:48:26.530Z,9.70
2023-02-03T19:50:57.680Z,10.38
2023-02-03T19:53:28.087Z,8.45
2023-02-03T19:55:59.070Z,10.45
2023-02-03T19:58:30.767Z,11.00
2023-02-03T20:01:01.307Z,9.23
2023-02-03T20:03:32.634Z,12.30
2023-02-03T20:06:04.929Z,6.17
2023-02-03T20:08:35.410Z,7.00
2023-02-03T20:11:06.291Z,8.68
2023-02-03T20:13:37.896Z,9.37
2023-02-03T20:16:08.559Z,8.97
2023-02-03T20:18:39.070Z,6.47
2023-02-03T20:21:10.318Z,10.13
2023-02-03T20:23:41.473Z,5.33
2023-02-03T20:26:14.347Z,6.70
2023-02-03T20:28:46.012Z,10.40
2023-02-03T20:31:16.607Z,5.73
2023-02-03T20:33:47.348Z,6.83
2023-02-03T20:36:17.899Z,7.78
2023-02-03T20:38:50.206Z,5.80
2023-02-03T20:41:20.753Z,5.13
2023-02-03T20:43:53.677Z,7.53
2023-02-03T20:46:26.240Z,7.70
2023-02-03T20:48:56.764Z,8.80
2023-02-03T20:51:29.351Z,6.80
2023-02-03T20:54:03.194Z,5.50
2023-02-03T20:56:35.378Z,6.33
2023-02-03T20:59:09.167Z,9.53
2023-02-03T21:01:41.409Z,4.13
2023-02-03T21:04:35.274Z,10.50
2023-02-03T21:07:18.068Z,5.20
2023-02-03T21:09:48.856Z,5.42
2023-02-03T21:12:20.856Z,5.80
2023-02-03T21:14:53.670Z,1.62
2023-02-03T21:17:29.568Z,5.07
2023-02-03T21:20:00.134Z,2.20
2023-02-03T21:22:33.117Z,3.33
2023-02-03T21:25:05.106Z,2.27
2023-02-03T21:27:36.230Z,7.05
2023-02-03T21:30:34.346Z,2.17
2023-02-03T21:33:13.095Z,2.47
2023-02-03T21:35:43.847Z,3.17
2023-02-03T21:38:34.006Z,2.00
2023-02-03T21:41:06.114Z,2.43
2023-02-03T21:43:36.937Z,2.40
2023-02-03T21:46:09.006Z,2.33
2023-02-03T21:48:41.166Z,1.43
2023-02-03T21:51:17.681Z,1.30
2023-02-03T21:53:58.159Z,1.43
2023-02-03T21:56:32.284Z,2.17
2023-02-03T21:59:05.892Z,1.73
2023-02-03T22:01:40.320Z,1.50
2023-02-03T22:04:22.301Z,1.60
2023-02-03T22:06:57.540Z,1.67
2023-02-03T22:09:29.643Z,2.03
2023-02-03T22:12:01.363Z,1.40
2023-02-03T22:14:32.006Z,2.47
2023-02-03T22:17:02.557Z,1.67
2023-02-03T22:19:34.994Z,2.57
2023-02-03T22:22:06.219Z,8.23
2023-02-03T22:24:41.054Z,4.93
2023-02-03T22:27:11.573Z,2.80
2023-02-03T22:29:42.130Z,2.73
2023-02-03T22:32:14.173Z,2.00
2023-02-03T22:34:44.682Z,3.33
2023-02-03T22:37:15.247Z,2.40
2023-02-03T22:39:46.243Z,2.53
2023-02-03T22:42:17.806Z,3.93
2023-02-03T22:44:49.699Z,3.33
2023-02-03T22:47:20.333Z,3.83
2023-02-03T22:49:51.235Z,2.83
2023-02-03T22:52:22.797Z,2.10
2023-02-03T22:54:56.481Z,2.30
2023-02-03T22:57:26.659Z,3.10
2023-02-03T22:59:57.188Z,2.43
2023-02-03T23:02:29.205Z,2.17
2023-02-03T23:04:59.671Z,2.00
2023-02-03T23:07:30.309Z,1.60
2023-02-03T23:10:01.532Z,2.30
2023-02-03T23:12:32.071Z,1.53
2023-02-03T23:15:04.370Z,3.30
2023-02-03T23:17:35.082Z,2.27
2023-02-03T23:20:07.777Z,2.40
2023-02-03T23:22:39.408Z,1.67
2023-02-03T23:25:11.003Z,3.20
2023-02-03T23:27:42.574Z,4.33
2023-02-03T23:30:16.430Z,4.93
2023-02-03T23:32:46.814Z,4.40
2023-02-03T23:35:39.884Z,3.00
2023-02-03T23:38:11.407Z,3.67
2023-02-03T23:40:44.738Z,2.67
2023-02-03T23:43:16.668Z,3.03
2023-02-03T23:45:48.619Z,2.97
2023-02-03T23:48:20.661Z,2.80
2023-02-03T23:50:52.987Z,2.60
2023-02-03T23:53:23.866Z,3.47
2023-02-03T23:55:58.417Z,2.30
2023-02-03T23:58:31.786Z,1.77
